createdAt,value
2023-01-19T00:01:08.838Z,96.081543
2023-01-19T00:02:18.532Z,95.86792
2023-01-19T00:03:28.324Z,95.86792
2023-01-19T00:04:37.016Z,95.977783
2023-01-19T00:05:45.738Z,95.977783
2023-01-19T00:06:55.487Z,95.977783
2023-01-19T00:08:04.239Z,96.081543
2023-01-19T00:09:13.960Z,96.081543
2023-01-19T00:10:22.654Z,95.977783
2023-01-19T00:11:31.352Z,95.977783
2023-01-19T00:12:41.104Z,96.185303
2023-01-19T00:13:49.801Z,96.185303
2023-01-19T00:14:59.541Z,96.081543
2023-01-19T00:16:09.291Z,95.977783
2023-01-19T00:17:17.998Z,95.76416
2023-01-19T00:18:26.719Z,95.86792
2023-01-19T00:19:34.469Z,95.86792
2023-01-19T00:20:44.138Z,95.76416
2023-01-19T00:21:53.943Z,95.86792
2023-01-19T00:23:02.907Z,95.977783
2023-01-19T00:24:10.288Z,96.185303
2023-01-19T00:25:19.998Z,96.081543
2023-01-19T00:26:28.681Z,95.977783
2023-01-19T00:27:37.390Z,96.081543
2023-01-19T00:28:46.115Z,96.081543
2023-01-19T00:29:55.799Z,96.185303
2023-01-19T00:31:05.585Z,96.081543
2023-01-19T00:32:13.241Z,95.86792
2023-01-19T00:33:21.069Z,95.556641
2023-01-19T00:34:30.735Z,95.349121
2023-01-19T00:35:39.422Z,95.452881
2023-01-19T00:36:48.162Z,95.556641
2023-01-19T00:37:55.875Z,95.452881
2023-01-19T00:39:05.573Z,95.452881
2023-01-19T00:40:15.275Z,95.452881
2023-01-19T00:41:22.981Z,95.349121
2023-01-19T00:42:30.706Z,95.135498
2023-01-19T00:43:40.408Z,94.824219
2023-01-19T00:44:49.147Z,94.403076
2023-01-19T00:45:58.862Z,94.195557
2023-01-19T00:47:07.546Z,94.299316
2023-01-19T00:48:16.268Z,94.299316
2023-01-19T00:49:26.030Z,94.299316
2023-01-19T00:50:33.746Z,94.445801
2023-01-19T00:51:41.472Z,94.616699
2023-01-19T00:52:51.139Z,94.616699
2023-01-19T00:53:59.892Z,94.616699
2023-01-19T00:55:08.625Z,94.445801
2023-01-19T00:56:17.334Z,94.238281
2023-01-19T00:57:26.029Z,94.134521
2023-01-19T00:58:35.757Z,94.134521
2023-01-19T00:59:44.632Z,94.134521
2023-01-19T01:00:54.538Z,94.238281
2023-01-19T01:02:02.345Z,94.238281
2023-01-19T01:03:09.929Z,94.342041
2023-01-19T01:04:19.634Z,94.445801
2023-01-19T01:05:29.356Z,94.512939
2023-01-19T01:06:38.076Z,94.512939
2023-01-19T01:07:46.757Z,94.616699
2023-01-19T01:08:55.462Z,94.824219
2023-01-19T01:10:05.181Z,95.031738
2023-01-19T01:11:13.884Z,95.031738
2023-01-19T01:12:23.671Z,95.135498
2023-01-19T01:13:33.801Z,95.135498
2023-01-19T01:14:42.150Z,95.135498
2023-01-19T01:15:50.869Z,95.245361
2023-01-19T01:17:00.839Z,95.349121
2023-01-19T01:18:10.385Z,95.349121
2023-01-19T01:19:20.418Z,95.452881
2023-01-19T01:20:27.132Z,95.452881
2023-01-19T01:21:34.781Z,95.452881
2023-01-19T01:22:44.610Z,95.452881
2023-01-19T01:23:53.323Z,95.556641
2023-01-19T01:25:03.074Z,95.556641
2023-01-19T01:26:36.769Z,95.556641
2023-01-19T01:27:45.440Z,95.916748
2023-01-19T01:28:55.156Z,96.124268
2023-01-19T01:30:03.912Z,96.228027
2023-01-19T01:31:11.625Z,96.228027
2023-01-19T01:32:21.355Z,96.228027
2023-01-19T01:33:40.230Z,96.228027
2023-01-19T01:34:40.813Z,96.331787
2023-01-19T01:35:49.542Z,96.435547
2023-01-19T01:36:59.268Z,96.435547
2023-01-19T01:38:08.998Z,96.64917
2023-01-19T01:39:16.738Z,96.75293
2023-01-19T01:40:25.443Z,97.064209
2023-01-19T01:41:35.150Z,97.277832
2023-01-19T01:42:43.983Z,97.589111
2023-01-19T01:43:53.590Z,97.796631
2023-01-19T01:45:02.445Z,97.906494
2023-01-19T01:46:12.275Z,98.010254
2023-01-19T01:47:21.919Z,98.217773
2023-01-19T01:48:29.616Z,98.321533
2023-01-19T01:49:38.341Z,98.535156
2023-01-19T01:50:48.136Z,98.535156
2023-01-19T01:51:57.884Z,98.742676
2023-01-19T01:53:08.259Z,98.846436
2023-01-19T01:54:16.298Z,98.846436
2023-01-19T01:55:25.137Z,98.846436
2023-01-19T01:56:34.924Z,98.7854
2023-01-19T01:57:41.616Z,98.7854
2023-01-19T01:58:49.414Z,98.7854
2023-01-19T01:59:59.152Z,98.7854
2023-01-19T02:01:06.964Z,98.88916
2023-01-19T02:02:16.547Z,98.999023
2023-01-19T02:03:25.311Z,99.102783
2023-01-19T02:04:33.975Z,99.102783
2023-01-19T02:05:43.658Z,99.310303
2023-01-19T02:06:52.365Z,99.517822
2023-01-19T02:08:00.106Z,99.627686
2023-01-19T02:09:09.827Z,99.835205
2023-01-19T02:10:18.505Z,99.938965
2023-01-19T02:11:27.196Z,99.993896
2023-01-19T02:12:35.921Z,99.993896
2023-01-19T02:13:44.664Z,99.993896
2023-01-19T02:14:54.437Z,99.993896
2023-01-19T02:16:03.117Z,99.993896
2023-01-19T02:17:10.810Z,99.993896
2023-01-19T02:18:20.518Z,99.993896
2023-01-19T02:19:30.240Z,99.993896
2023-01-19T02:20:39.906Z,99.993896
2023-01-19T02:21:48.629Z,99.938965
2023-01-19T02:22:58.728Z,99.993896
2023-01-19T02:24:07.991Z,99.993896
2023-01-19T02:25:15.686Z,99.993896
2023-01-19T02:26:24.394Z,99.993896
2023-01-19T02:27:34.118Z,99.938965
2023-01-19T02:28:42.797Z,99.938965
2023-01-19T02:29:51.508Z,99.938965
2023-01-19T02:30:59.233Z,99.938965
2023-01-19T02:32:07.899Z,99.938965
2023-01-19T02:33:17.580Z,99.835205
2023-01-19T02:34:26.287Z,99.835205
2023-01-19T02:35:34.046Z,99.938965
2023-01-19T02:36:43.759Z,99.835205
2023-01-19T02:37:52.460Z,99.627686
2023-01-19T02:39:02.152Z,99.414062
2023-01-19T02:40:10.895Z,99.206543
2023-01-19T02:41:20.581Z,99.206543
2023-01-19T02:42:30.396Z,99.310303
2023-01-19T02:43:39.079Z,99.414062
2023-01-19T02:44:47.787Z,99.310303
2023-01-19T02:45:57.522Z,99.310303
2023-01-19T02:47:06.217Z,99.353027
2023-01-19T02:48:15.987Z,99.310303
2023-01-19T02:49:24.695Z,99.249268
2023-01-19T02:50:34.439Z,99.249268
2023-01-19T02:51:44.205Z,99.249268
2023-01-19T02:52:51.895Z,99.249268
2023-01-19T02:54:01.687Z,99.462891
2023-01-19T02:55:11.405Z,99.462891
2023-01-19T02:56:18.129Z,99.462891
2023-01-19T02:57:27.900Z,99.56665
2023-01-19T02:58:37.601Z,99.56665
2023-01-19T02:59:47.337Z,99.67041
2023-01-19T03:00:57.117Z,99.77417
2023-01-19T03:02:05.881Z,99.77417
2023-01-19T03:03:15.551Z,99.77417
2023-01-19T03:04:25.251Z,99.67041
2023-01-19T03:05:32.956Z,99.462891
2023-01-19T03:06:41.689Z,99.249268
2023-01-19T03:07:50.399Z,98.937988
2023-01-19T03:09:00.116Z,98.937988
2023-01-19T03:10:08.812Z,98.937988
2023-01-19T03:11:17.553Z,99.084473
2023-01-19T03:12:27.296Z,99.084473
2023-01-19T03:13:37.041Z,99.084473
2023-01-19T03:14:44.684Z,99.084473
2023-01-19T03:15:54.466Z,98.980713
2023-01-19T03:17:03.088Z,99.084473
2023-01-19T03:18:11.783Z,99.188232
2023-01-19T03:19:20.567Z,99.188232
2023-01-19T03:20:29.283Z,99.298096
2023-01-19T03:21:38.987Z,99.084473
2023-01-19T03:22:46.680Z,98.980713
2023-01-19T03:23:55.386Z,99.084473
2023-01-19T03:25:05.127Z,99.084473
2023-01-19T03:26:14.864Z,98.876953
2023-01-19T03:27:23.611Z,98.55957
2023-01-19T03:28:32.351Z,98.455811
2023-01-19T03:29:41.066Z,98.352051
2023-01-19T03:30:50.807Z,98.352051
2023-01-19T03:31:58.461Z,98.248291
2023-01-19T03:33:06.135Z,98.144531
2023-01-19T03:34:15.916Z,98.144531
2023-01-19T03:35:24.626Z,98.144531
2023-01-19T03:36:33.279Z,98.144531
2023-01-19T03:37:41.962Z,98.144531
2023-01-19T03:38:51.669Z,98.187256
2023-01-19T03:40:01.393Z,98.187256
2023-01-19T03:41:10.128Z,98.144531
2023-01-19T03:42:19.811Z,98.248291
2023-01-19T03:43:29.524Z,98.248291
2023-01-19T03:44:39.230Z,98.291016
2023-01-19T03:45:48.014Z,98.291016
2023-01-19T03:46:55.659Z,98.504639
2023-01-19T03:48:04.387Z,98.608398
2023-01-19T03:49:14.102Z,98.712158
2023-01-19T03:50:21.785Z,98.712158
2023-01-19T03:51:29.620Z,98.815918
2023-01-19T03:52:39.288Z,98.919678
2023-01-19T03:53:48.992Z,99.029541
2023-01-19T03:54:57.698Z,99.133301
2023-01-19T03:56:07.402Z,99.133301
2023-01-19T03:57:16.124Z,99.133301
2023-01-19T03:58:25.848Z,99.133301
2023-01-19T03:59:34.594Z,99.133301
2023-01-19T04:00:42.321Z,99.133301
2023-01-19T04:01:52.059Z,99.237061
2023-01-19T04:03:02.136Z,99.237061
2023-01-19T04:04:10.455Z,99.237061
2023-01-19T04:05:19.172Z,99.34082
2023-01-19T04:06:27.861Z,99.34082
2023-01-19T04:07:37.619Z,99.44458
2023-01-19T04:08:46.321Z,99.34082
2023-01-19T04:09:55.027Z,99.34082
2023-01-19T04:11:04.773Z,99.34082
2023-01-19T04:12:14.537Z,99.44458
2023-01-19T04:13:24.220Z,99.44458
2023-01-19T04:14:33.943Z,99.44458
2023-01-19T04:15:42.662Z,99.44458
2023-01-19T04:16:52.309Z,99.34082
2023-01-19T04:18:01.024Z,99.237061
2023-01-19T04:19:10.693Z,99.133301
2023-01-19T04:20:20.391Z,99.133301
2023-01-19T04:21:29.055Z,99.133301
2023-01-19T04:22:38.773Z,99.133301
2023-01-19T04:23:47.489Z,99.029541
2023-01-19T04:24:56.148Z,99.029541
2023-01-19T04:26:05.868Z,99.133301
2023-01-19T04:27:14.557Z,99.072266
2023-01-19T04:28:24.333Z,99.072266
2023-01-19T04:29:34.034Z,99.072266
2023-01-19T04:30:42.729Z,99.176025
2023-01-19T04:31:51.510Z,99.176025
2023-01-19T04:33:00.577Z,99.176025
2023-01-19T04:34:09.060Z,99.279785
2023-01-19T04:35:18.772Z,99.279785
2023-01-19T04:36:26.435Z,99.279785
2023-01-19T04:37:34.231Z,99.383545
2023-01-19T04:38:43.928Z,99.383545
2023-01-19T04:39:53.675Z,99.383545
2023-01-19T04:41:01.338Z,99.383545
2023-01-19T04:42:10.068Z,99.279785
2023-01-19T04:43:18.768Z,99.279785
2023-01-19T04:44:28.489Z,99.279785
2023-01-19T04:45:36.175Z,99.279785
2023-01-19T04:46:44.946Z,99.279785
2023-01-19T04:47:54.575Z,99.383545
2023-01-19T04:49:03.360Z,99.383545
2023-01-19T04:50:13.101Z,99.432373
2023-01-19T04:51:21.808Z,99.597168
2023-01-19T04:52:30.488Z,99.597168
2023-01-19T04:53:40.176Z,99.743652
2023-01-19T04:54:48.884Z,99.743652
2023-01-19T04:55:58.610Z,99.743652
2023-01-19T04:57:07.258Z,99.853516
2023-01-19T04:58:14.961Z,99.853516
2023-01-19T04:59:24.672Z,99.853516
2023-01-19T05:00:33.372Z,99.853516
2023-01-19T05:01:43.081Z,99.853516
2023-01-19T05:02:51.801Z,99.853516
2023-01-19T05:04:00.491Z,99.853516
2023-01-19T05:05:10.222Z,99.853516
2023-01-19T05:06:17.961Z,99.853516
2023-01-19T05:07:25.648Z,99.743652
2023-01-19T05:08:35.429Z,99.79248
2023-01-19T05:09:45.131Z,99.79248
2023-01-19T05:10:53.843Z,99.89624
2023-01-19T05:12:02.568Z,99.89624
2023-01-19T05:13:11.253Z,99.993896
2023-01-19T05:14:20.950Z,99.993896
2023-01-19T05:15:28.733Z,99.993896
2023-01-19T05:16:37.437Z,99.993896
2023-01-19T05:17:47.189Z,99.993896
2023-01-19T05:18:55.894Z,99.993896
2023-01-19T05:20:05.721Z,99.993896
2023-01-19T05:21:14.432Z,99.993896
2023-01-19T05:22:23.156Z,99.993896
2023-01-19T05:23:32.934Z,99.993896
2023-01-19T05:24:42.881Z,99.993896
2023-01-19T05:25:51.640Z,99.993896
2023-01-19T05:27:01.350Z,99.993896
2023-01-19T05:28:11.074Z,99.993896
2023-01-19T05:29:19.773Z,99.993896
2023-01-19T05:30:28.463Z,99.993896
2023-01-19T05:31:38.203Z,99.993896
2023-01-19T05:32:47.927Z,99.993896
2023-01-19T05:33:55.631Z,99.993896
2023-01-19T05:35:04.304Z,99.993896
2023-01-19T05:36:14.017Z,99.993896
2023-01-19T05:37:22.729Z,99.993896
2023-01-19T05:38:36.124Z,99.993896
2023-01-19T05:39:42.164Z,99.993896
2023-01-19T05:40:51.039Z,99.993896
2023-01-19T05:42:00.628Z,99.993896
2023-01-19T05:43:10.348Z,99.993896
2023-01-19T05:44:19.085Z,99.993896
2023-01-19T05:45:28.753Z,99.993896
2023-01-19T05:46:38.576Z,99.993896
2023-01-19T05:47:47.264Z,99.993896
2023-01-19T05:48:55.981Z,99.993896
2023-01-19T05:50:04.687Z,99.993896
2023-01-19T05:51:14.353Z,99.993896
2023-01-19T05:52:23.113Z,99.993896
2023-01-19T05:53:31.934Z,99.993896
2023-01-19T05:54:41.646Z,99.993896
2023-01-19T05:55:50.330Z,99.993896
2023-01-19T05:56:59.036Z,99.993896
2023-01-19T05:58:08.854Z,99.993896
2023-01-19T05:59:18.541Z,99.993896
2023-01-19T06:00:28.282Z,99.993896
2023-01-19T06:01:38.758Z,99.993896
2023-01-19T06:02:44.785Z,99.993896
2023-01-19T06:03:53.507Z,99.993896
2023-01-19T06:05:02.319Z,99.993896
2023-01-19T06:06:11.978Z,99.993896
2023-01-19T06:07:20.705Z,99.993896
2023-01-19T06:08:31.442Z,99.993896
2023-01-19T06:09:41.189Z,99.993896
2023-01-19T06:10:48.892Z,99.993896
2023-01-19T06:11:56.630Z,99.993896
2023-01-19T06:13:06.376Z,99.993896
2023-01-19T06:14:15.061Z,99.993896
2023-01-19T06:15:22.755Z,99.993896
2023-01-19T06:16:31.554Z,99.993896
2023-01-19T06:17:40.179Z,99.993896
2023-01-19T06:18:49.867Z,99.993896
2023-01-19T06:19:58.622Z,99.993896
2023-01-19T06:21:07.371Z,99.993896
2023-01-19T06:22:17.065Z,99.993896
2023-01-19T06:23:25.747Z,99.993896
2023-01-19T06:24:34.442Z,99.993896
2023-01-19T06:25:43.147Z,99.993896
2023-01-19T06:26:51.866Z,99.993896
2023-01-19T06:28:01.573Z,99.993896
2023-01-19T06:29:10.244Z,99.993896
2023-01-19T06:30:17.930Z,99.993896
2023-01-19T06:31:27.652Z,99.993896
2023-01-19T06:32:36.373Z,99.993896
2023-01-19T06:33:46.128Z,99.993896
2023-01-19T06:34:54.809Z,99.993896
2023-01-19T06:36:04.591Z,99.993896
2023-01-19T06:37:14.219Z,99.993896
2023-01-19T06:38:21.973Z,99.993896
2023-01-19T06:39:30.675Z,99.993896
2023-01-19T06:40:40.386Z,99.993896
2023-01-19T06:41:49.075Z,99.993896
2023-01-19T06:42:57.839Z,99.993896
2023-01-19T06:44:07.561Z,99.993896
2023-01-19T06:45:16.272Z,99.993896
2023-01-19T06:46:25.969Z,99.993896
2023-01-19T06:47:33.719Z,99.993896
2023-01-19T06:48:41.408Z,99.993896
2023-01-19T06:49:51.079Z,99.993896
2023-01-19T06:51:00.026Z,99.993896
2023-01-19T06:52:09.456Z,99.993896
2023-01-19T06:53:18.127Z,99.993896
2023-01-19T06:54:27.886Z,99.993896
2023-01-19T06:55:36.585Z,99.993896
2023-01-19T06:56:45.316Z,99.993896
2023-01-19T06:57:55.019Z,99.993896
2023-01-19T06:59:02.686Z,99.993896
2023-01-19T07:00:11.393Z,99.993896
2023-01-19T07:01:21.234Z,99.993896
2023-01-19T07:02:31.116Z,99.993896
2023-01-19T07:03:39.618Z,99.993896
2023-01-19T07:04:48.413Z,99.993896
2023-01-19T07:05:57.097Z,99.993896
2023-01-19T07:07:06.836Z,99.79248
2023-01-19T07:08:15.548Z,99.688721
2023-01-19T07:09:24.240Z,99.578857
2023-01-19T07:11:22.051Z,99.371338
2023-01-19T07:11:44.580Z,99.371338
2023-01-19T07:12:54.356Z,99.328613
2023-01-19T07:14:04.061Z,99.11499
2023-01-19T07:15:12.748Z,99.01123
2023-01-19T07:16:22.502Z,98.803711
2023-01-19T07:17:30.173Z,98.693848
2023-01-19T07:18:38.893Z,98.486328
2023-01-19T07:19:48.580Z,98.278809
2023-01-19T07:20:57.302Z,98.278809
2023-01-19T07:22:07.013Z,98.065186
2023-01-19T07:23:15.714Z,97.857666
2023-01-19T07:24:24.405Z,97.644043
2023-01-19T07:25:34.123Z,97.436523
2023-01-19T07:26:41.856Z,97.290039
2023-01-19T07:27:50.567Z,97.076416
2023-01-19T07:29:00.267Z,96.972656
2023-01-19T07:30:09.055Z,96.868896
2023-01-19T07:31:17.857Z,96.807861
2023-01-19T07:32:27.477Z,96.655273
2023-01-19T07:33:36.182Z,96.447754
2023-01-19T07:34:46.011Z,96.447754
2023-01-19T07:35:53.695Z,96.240234
2023-01-19T07:37:02.551Z,96.130371
2023-01-19T07:38:12.518Z,96.026611
2023-01-19T07:39:21.798Z,95.922852
2023-01-19T07:40:31.526Z,95.922852
2023-01-19T07:41:40.275Z,95.819092
2023-01-19T07:42:49.010Z,95.758057
2023-01-19T07:43:58.732Z,95.654297
2023-01-19T07:45:07.483Z,95.654297
2023-01-19T07:46:15.244Z,95.544434
2023-01-19T07:47:24.966Z,95.544434
2023-01-19T07:48:33.721Z,95.397949
2023-01-19T07:49:43.438Z,95.19043
2023-01-19T07:50:52.182Z,94.873047
2023-01-19T07:52:00.988Z,94.769287
2023-01-19T07:53:10.768Z,94.665527
2023-01-19T07:54:19.501Z,94.769287
2023-01-19T07:55:27.199Z,94.665527
2023-01-19T07:56:36.944Z,94.451904
2023-01-19T07:57:45.640Z,94.348145
2023-01-19T07:58:55.400Z,94.244385
2023-01-19T08:00:04.216Z,94.348145
2023-01-19T08:01:13.031Z,94.244385
2023-01-19T08:02:22.713Z,94.036865
2023-01-19T08:03:30.465Z,94.140625
2023-01-19T08:04:38.225Z,93.823242
2023-01-19T08:05:47.895Z,93.4021
2023-01-19T08:06:57.700Z,93.4021
2023-01-19T08:08:06.434Z,92.987061
2023-01-19T08:09:15.228Z,92.987061
2023-01-19T08:10:24.977Z,92.987061
2023-01-19T08:11:34.736Z,92.944336
2023-01-19T08:12:43.398Z,92.834473
2023-01-19T08:13:52.138Z,92.523193
2023-01-19T08:15:01.838Z,92.419434
2023-01-19T08:16:10.756Z,92.523193
2023-01-19T08:17:19.513Z,92.205811
2023-01-19T08:18:28.209Z,91.894531
2023-01-19T08:19:39.512Z,91.790771
2023-01-19T08:20:47.647Z,91.790771
2023-01-19T08:21:56.368Z,91.748047
2023-01-19T08:23:04.378Z,91.223145
2023-01-19T08:24:13.855Z,91.009521
2023-01-19T08:25:23.568Z,90.802002
2023-01-19T08:26:32.264Z,90.698242
2023-01-19T08:27:41.007Z,90.2771
2023-01-19T08:28:49.786Z,90.2771
2023-01-19T08:29:59.480Z,89.855957
2023-01-19T08:31:19.084Z,89.923096
2023-01-19T08:32:16.986Z,89.605713
2023-01-19T08:33:26.650Z,89.605713
2023-01-19T08:34:35.355Z,89.923096
2023-01-19T08:35:44.115Z,89.605713
2023-01-19T08:36:52.872Z,89.398193
2023-01-19T08:38:01.646Z,89.190674
2023-01-19T08:39:10.328Z,89.190674
2023-01-19T08:40:17.990Z,89.190674
2023-01-19T08:41:26.724Z,89.044189
2023-01-19T08:42:36.379Z,88.94043
2023-01-19T08:43:45.080Z,88.415527
2023-01-19T08:44:57.987Z,88.623047
2023-01-19T08:46:04.636Z,88.311768
2023-01-19T08:47:14.337Z,88.208008
2023-01-19T08:48:23.938Z,88.519287
2023-01-19T08:49:32.642Z,88.415527
2023-01-19T08:50:42.514Z,88.519287
2023-01-19T08:51:51.174Z,88.519287
2023-01-19T08:52:59.168Z,87.994385
2023-01-19T08:54:08.558Z,88.208008
2023-01-19T08:55:17.254Z,87.994385
2023-01-19T08:56:25.992Z,88.208008
2023-01-19T08:57:34.736Z,88.165283
2023-01-19T08:58:43.396Z,88.061523
2023-01-19T08:59:54.071Z,87.957764
2023-01-19T09:01:03.152Z,87.432861
2023-01-19T09:02:10.556Z,87.854004
2023-01-19T09:03:20.231Z,87.536621
2023-01-19T09:04:28.954Z,87.854004
2023-01-19T09:05:38.685Z,87.579346
2023-01-19T09:06:47.397Z,87.261963
2023-01-19T09:07:57.210Z,87.054443
2023-01-19T09:09:06.934Z,87.054443
2023-01-19T09:10:14.603Z,87.054443
2023-01-19T09:11:22.288Z,87.261963
2023-01-19T09:12:31.988Z,86.846924
2023-01-19T09:13:40.725Z,86.737061
2023-01-19T09:14:49.405Z,86.846924
2023-01-19T09:15:58.144Z,86.950684
2023-01-19T09:17:06.842Z,86.700439
2023-01-19T09:18:16.552Z,86.700439
2023-01-19T09:19:25.261Z,86.383057
2023-01-19T09:20:33.952Z,86.175537
2023-01-19T09:21:43.723Z,86.553955
2023-01-19T09:22:52.513Z,86.138916
2023-01-19T09:24:01.296Z,85.681152
2023-01-19T09:25:11.033Z,85.15625
2023-01-19T09:26:19.730Z,84.94873
2023-01-19T09:27:29.399Z,84.112549
2023-01-19T09:28:38.165Z,84.112549
2023-01-19T09:29:45.863Z,84.002686
2023-01-19T09:30:55.693Z,83.862305
2023-01-19T09:32:05.383Z,83.233643
2023-01-19T09:33:15.068Z,82.958984
2023-01-19T09:34:23.751Z,82.751465
2023-01-19T09:35:32.461Z,83.483887
2023-01-19T09:36:42.175Z,83.166504
2023-01-19T09:37:50.896Z,83.270264
2023-01-19T09:38:59.630Z,83.270264
2023-01-19T09:40:08.365Z,83.587646
2023-01-19T09:41:17.011Z,82.958984
2023-01-19T09:42:25.733Z,83.270264
2023-01-19T09:43:35.487Z,83.166504
2023-01-19T09:44:44.190Z,83.026123
2023-01-19T09:45:53.981Z,82.397461
2023-01-19T09:47:01.649Z,82.397461
2023-01-19T09:48:09.353Z,82.501221
2023-01-19T09:49:19.102Z,82.397461
2023-01-19T09:50:27.794Z,82.397461
2023-01-19T09:51:37.502Z,82.397461
2023-01-19T09:52:46.223Z,82.293701
2023-01-19T09:53:54.964Z,82.25708
2023-01-19T09:55:04.668Z,82.049561
2023-01-19T09:56:14.485Z,82.15332
2023-01-19T09:57:22.140Z,82.36084
2023-01-19T09:58:31.846Z,81.835938
2023-01-19T09:59:41.550Z,80.859375
2023-01-19T10:00:50.296Z,80.859375
2023-01-19T10:01:59.022Z,80.548096
2023-01-19T10:03:07.683Z,80.651855
2023-01-19T10:04:17.384Z,80.755615
2023-01-19T10:05:25.128Z,81.176758
2023-01-19T10:06:32.818Z,80.963135
2023-01-19T10:07:42.494Z,81.134033
2023-01-19T10:08:51.185Z,80.444336
2023-01-19T10:09:59.959Z,80.651855
2023-01-19T10:11:08.668Z,79.815674
2023-01-19T10:12:19.812Z,80.236816
2023-01-19T10:13:28.043Z,80.859375
2023-01-19T10:14:36.747Z,81.066895
2023-01-19T10:15:44.481Z,80.963135
2023-01-19T10:16:54.169Z,81.591797
2023-01-19T10:18:03.976Z,80.755615
2023-01-19T10:19:12.511Z,80.407715
2023-01-19T10:20:21.186Z,80.407715
2023-01-19T10:21:29.916Z,79.675293
2023-01-19T10:22:38.657Z,80.023193
2023-01-19T10:23:47.477Z,80.755615
2023-01-19T10:24:56.206Z,80.755615
2023-01-19T10:26:05.877Z,80.444336
2023-01-19T10:27:14.583Z,81.066895
2023-01-19T10:28:23.312Z,81.134033
2023-01-19T10:29:32.003Z,79.779053
2023-01-19T10:30:41.736Z,79.150391
2023-01-19T10:31:51.424Z,79.01001
2023-01-19T10:32:59.591Z,78.90625
2023-01-19T10:34:06.859Z,78.90625
2023-01-19T10:35:16.506Z,78.765869
2023-01-19T10:36:25.225Z,78.24707
2023-01-19T10:37:34.872Z,78.24707
2023-01-19T10:38:43.573Z,76.99585
2023-01-19T10:39:52.293Z,76.99585
2023-01-19T10:41:01.978Z,76.678467
2023-01-19T10:42:10.707Z,76.611328
2023-01-19T10:43:18.403Z,77.380371
2023-01-19T10:44:28.103Z,77.062988
2023-01-19T10:45:37.872Z,77.79541
2023-01-19T10:46:47.509Z,78.00293
2023-01-19T10:47:56.178Z,77.380371
2023-01-19T10:49:04.870Z,77.44751
2023-01-19T10:50:14.739Z,76.922607
2023-01-19T10:51:23.532Z,77.13623
2023-01-19T10:52:33.308Z,77.722168
2023-01-19T10:53:42.996Z,77.099609
2023-01-19T10:54:51.615Z,76.544189
2023-01-19T10:56:01.368Z,75.811768
2023-01-19T10:57:10.113Z,75.396729
2023-01-19T10:58:19.802Z,75.292969
2023-01-19T10:59:28.489Z,75.396729
2023-01-19T11:00:37.332Z,75.396729
2023-01-19T11:01:46.971Z,75.708008
2023-01-19T11:02:55.622Z,75.183105
2023-01-19T11:04:03.226Z,75.183105
2023-01-19T11:05:12.906Z,74.975586
2023-01-19T11:06:21.630Z,74.700928
2023-01-19T11:07:30.277Z,74.804688
2023-01-19T11:08:39.009Z,75.323486
2023-01-19T11:09:48.754Z,76.055908
2023-01-19T11:10:58.581Z,75.115967
2023-01-19T11:12:08.300Z,75.427246
2023-01-19T11:13:17.008Z,74.871826
2023-01-19T11:14:26.738Z,73.828125
2023-01-19T11:15:36.431Z,74.353027
2023-01-19T11:16:45.269Z,74.420166
2023-01-19T11:17:54.927Z,74.285889
2023-01-19T11:19:03.617Z,73.760986
2023-01-19T11:20:13.335Z,72.619629
2023-01-19T11:21:21.023Z,72.930908
2023-01-19T11:22:29.750Z,72.198486
2023-01-19T11:23:39.492Z,71.990967
2023-01-19T11:24:49.240Z,72.198486
2023-01-19T11:25:58.948Z,71.887207
2023-01-19T11:27:07.635Z,71.264648
2023-01-19T11:28:16.316Z,70.739746
2023-01-19T11:29:26.002Z,70.532227
2023-01-19T11:30:35.686Z,71.160889
2023-01-19T11:31:43.476Z,71.679688
2023-01-19T11:32:53.186Z,71.679688
2023-01-19T11:34:01.832Z,71.331787
2023-01-19T11:35:11.054Z,70.605469
2023-01-19T11:36:22.031Z,71.368408
2023-01-19T11:37:35.524Z,70.843506
2023-01-19T11:38:48.256Z,71.331787
2023-01-19T11:40:00.439Z,71.435547
2023-01-19T11:41:13.137Z,70.501709
2023-01-19T11:42:25.665Z,70.635986
2023-01-19T11:43:48.501Z,70.983887
2023-01-19T11:44:51.171Z,72.021484
2023-01-19T11:46:02.404Z,70.880127
2023-01-19T11:47:12.125Z,70.043945
2023-01-19T11:48:22.075Z,70.117188
2023-01-19T11:49:31.285Z,69.488525
2023-01-19T11:50:42.046Z,69.177246
2023-01-19T11:51:52.347Z,69.488525
2023-01-19T11:53:03.072Z,70.220947
2023-01-19T11:54:14.162Z,70.294189
2023-01-19T11:55:24.546Z,67.999268
2023-01-19T11:56:36.533Z,67.687988
2023-01-19T11:57:47.837Z,67.999268
2023-01-19T11:58:58.990Z,66.85791
2023-01-19T12:00:08.856Z,67.06543
2023-01-19T12:01:19.370Z,67.687988
2023-01-19T12:02:29.756Z,67.138672
2023-01-19T12:03:41.768Z,67.346191
2023-01-19T12:04:54.039Z,66.589355
2023-01-19T12:06:06.480Z,66.271973
2023-01-19T12:07:18.695Z,65.545654
2023-01-19T12:08:29.605Z,65.161133
2023-01-19T12:09:39.241Z,65.783691
2023-01-19T12:10:48.967Z,66.094971
2023-01-19T12:11:56.691Z,66.619873
2023-01-19T12:13:05.847Z,67.06543
2023-01-19T12:14:16.054Z,66.931152
2023-01-19T12:15:26.480Z,66.931152
2023-01-19T12:16:35.648Z,66.827393
2023-01-19T12:17:43.347Z,67.76123
2023-01-19T12:18:54.296Z,67.76123
2023-01-19T12:20:06.630Z,67.346191
2023-01-19T12:21:14.431Z,68.17627
2023-01-19T12:22:22.175Z,68.041992
2023-01-19T12:23:33.898Z,67.938232
2023-01-19T12:24:45.904Z,68.353271
2023-01-19T12:25:56.969Z,67.108154
2023-01-19T12:27:08.166Z,66.271973
2023-01-19T12:28:19.489Z,66.796875
2023-01-19T12:29:32.166Z,66.375732
2023-01-19T12:30:45.432Z,66.064453
2023-01-19T12:31:56.798Z,65.649414
2023-01-19T12:33:07.247Z,66.589355
2023-01-19T12:34:18.027Z,67.138672
2023-01-19T12:35:28.091Z,67.034912
2023-01-19T12:36:37.797Z,68.17627
2023-01-19T12:37:48.978Z,68.383789
2023-01-19T12:38:59.983Z,67.376709
2023-01-19T12:40:11.349Z,67.895508
2023-01-19T12:41:19.215Z,68.133545
2023-01-19T12:42:29.391Z,68.658447
2023-01-19T12:43:40.357Z,68.554688
2023-01-19T12:44:51.024Z,69.384766
2023-01-19T12:46:01.286Z,69.805908
2023-01-19T12:47:12.697Z,69.073486
2023-01-19T12:48:23.076Z,69.073486
2023-01-19T12:49:34.725Z,69.628906
2023-01-19T12:50:46.139Z,70.147705
2023-01-19T12:51:57.575Z,69.628906
2023-01-19T12:53:08.655Z,69.628906
2023-01-19T12:54:21.190Z,70.251465
2023-01-19T12:55:30.102Z,70.178223
2023-01-19T12:56:40.172Z,70.703125
2023-01-19T12:57:50.981Z,70.806885
2023-01-19T12:59:02.718Z,70.910645
2023-01-19T13:00:14.177Z,71.118164
2023-01-19T13:01:26.156Z,71.118164
2023-01-19T13:02:38.100Z,70.495605
2023-01-19T13:03:47.896Z,71.850586
2023-01-19T13:04:59.844Z,71.643066
2023-01-19T13:06:12.811Z,71.533203
2023-01-19T13:07:22.851Z,72.161865
2023-01-19T13:08:32.092Z,71.954346
2023-01-19T13:09:41.811Z,71.850586
2023-01-19T13:10:52.395Z,71.813965
2023-01-19T13:12:02.803Z,71.502686
2023-01-19T13:13:13.194Z,71.191406